createdAt,value
2018-10-20T00:00:46.847Z,15.20
2018-10-20T00:03:15.226Z,15.20
2018-10-20T00:05:43.610Z,15.20
2018-10-20T00:08:12.016Z,15.20
2018-10-20T00:10:40.443Z,15.20
2018-10-20T00:13:08.983Z,15.00
2018-10-20T00:15:37.251Z,15.00
2018-10-20T00:18:05.628Z,15.00
2018-10-20T00:20:33.965Z,14.90
2018-10-20T00:23:02.454Z,15.00
2018-10-20T00:25:30.730Z,15.00
2018-10-20T00:27:59.079Z,15.00
2018-10-20T00:30:27.639Z,15.10
2018-10-20T00:32:55.983Z,14.90
2018-10-20T00:35:24.359Z,14.90
2018-10-20T00:37:52.787Z,14.90
2018-10-20T00:40:21.160Z,14.90
2018-10-20T00:42:49.601Z,14.80
2018-10-20T00:45:17.960Z,14.90
2018-10-20T00:47:46.308Z,14.80
2018-10-20T00:50:14.761Z,14.80
2018-10-20T00:52:43.094Z,14.80
2018-10-20T00:55:11.523Z,14.80
2018-10-20T00:57:39.822Z,14.80
2018-10-20T01:00:08.777Z,14.70
2018-10-20T01:02:37.174Z,14.80
2018-10-20T01:05:06.046Z,14.80
2018-10-20T01:07:34.447Z,14.80
2018-10-20T01:10:03.036Z,14.70
2018-10-20T01:12:31.360Z,14.70
2018-10-20T01:14:59.691Z,14.70
2018-10-20T01:17:28.092Z,14.80
2018-10-20T01:19:56.446Z,14.70
2018-10-20T01:22:24.866Z,14.80
2018-10-20T01:24:53.287Z,14.80
2018-10-20T01:27:21.618Z,14.80
2018-10-20T01:29:49.979Z,14.70
2018-10-20T01:32:18.345Z,14.60
2018-10-20T01:34:47.275Z,14.70
2018-10-20T01:37:15.713Z,14.60
2018-10-20T01:39:44.719Z,14.60
2018-10-20T01:42:23.521Z,14.60
2018-10-20T01:44:51.875Z,14.60
2018-10-20T01:47:20.576Z,14.70
2018-10-20T01:49:50.089Z,14.70
2018-10-20T01:52:18.982Z,14.70
2018-10-20T01:54:47.284Z,14.60
2018-10-20T01:57:15.580Z,14.60
2018-10-20T01:59:45.096Z,14.60
2018-10-20T02:02:13.442Z,14.70
2018-10-20T02:04:41.809Z,14.70
2018-10-20T02:07:10.484Z,14.50
2018-10-20T02:09:39.093Z,14.40
2018-10-20T02:12:07.626Z,14.40
2018-10-20T02:14:36.145Z,14.30
2018-10-20T02:17:04.643Z,14.50
2018-10-20T02:19:34.024Z,14.50
2018-10-20T02:22:02.444Z,14.30
2018-10-20T02:24:30.741Z,14.30
2018-10-20T02:26:59.223Z,14.40
2018-10-20T02:29:27.704Z,14.40
2018-10-20T02:31:56.152Z,14.40
2018-10-20T02:34:24.597Z,14.40
2018-10-20T02:36:53.095Z,14.20
2018-10-20T02:39:21.672Z,14.20
2018-10-20T02:41:50.294Z,14.10
2018-10-20T02:44:19.075Z,14.10
2018-10-20T02:46:47.917Z,14.20
2018-10-20T02:49:17.003Z,14.20
2018-10-20T02:51:45.761Z,14.20
2018-10-20T02:54:14.480Z,14.20
2018-10-20T02:56:43.209Z,14.10
2018-10-20T02:59:12.007Z,14.10
2018-10-20T03:01:40.896Z,14.10
2018-10-20T03:04:10.765Z,14.10
2018-10-20T03:06:39.671Z,14.10
2018-10-20T03:09:09.246Z,14.10
2018-10-20T03:11:38.619Z,14.10
2018-10-20T03:14:07.201Z,14.20
2018-10-20T03:16:35.890Z,14.20
2018-10-20T03:19:05.132Z,14.20
2018-10-20T03:21:34.108Z,14.20
2018-10-20T03:24:02.955Z,14.20
2018-10-20T03:26:31.592Z,14.00
2018-10-20T03:29:00.259Z,14.00
2018-10-20T03:31:28.765Z,14.00
2018-10-20T03:33:57.045Z,14.00
2018-10-20T03:36:25.384Z,14.00
2018-10-20T03:38:53.771Z,14.10
2018-10-20T03:41:22.136Z,13.90
2018-10-20T03:43:50.488Z,13.90
2018-10-20T03:46:18.931Z,13.90
2018-10-20T03:48:47.312Z,13.80
2018-10-20T03:51:15.719Z,13.80
2018-10-20T03:53:44.048Z,13.90
2018-10-20T03:56:12.447Z,13.70
2018-10-20T03:58:52.160Z,13.70
2018-10-20T04:01:25.250Z,13.60
2018-10-20T04:03:53.624Z,13.60
2018-10-20T04:06:22.126Z,13.70
2018-10-20T04:08:50.498Z,13.60
2018-10-20T04:11:18.957Z,13.60
2018-10-20T04:13:47.320Z,13.60
2018-10-20T04:16:15.834Z,13.60
2018-10-20T04:18:44.627Z,13.60
2018-10-20T04:21:13.038Z,13.60
2018-10-20T04:23:41.433Z,13.50
2018-10-20T04:26:11.821Z,13.50
2018-10-20T04:28:40.350Z,13.50
2018-10-20T04:31:08.883Z,13.50
2018-10-20T04:33:37.196Z,13.50
2018-10-20T04:36:06.084Z,13.60
2018-10-20T04:38:34.463Z,13.50
2018-10-20T04:41:02.851Z,13.40
2018-10-20T04:43:31.227Z,13.50
2018-10-20T04:45:59.613Z,13.40
2018-10-20T04:48:27.926Z,13.40
2018-10-20T04:50:56.377Z,13.40
2018-10-20T04:53:24.893Z,13.40
2018-10-20T04:55:53.252Z,13.30
2018-10-20T04:58:21.736Z,13.30
2018-10-20T05:00:50.087Z,13.30
2018-10-20T05:03:18.541Z,13.20
2018-10-20T05:05:47.204Z,13.20
2018-10-20T05:08:15.550Z,13.00
2018-10-20T05:10:44.053Z,12.80
2018-10-20T05:13:23.730Z,12.80
2018-10-20T05:15:52.273Z,12.90
2018-10-20T05:18:20.767Z,13.00
2018-10-20T05:20:49.139Z,13.10
2018-10-20T05:23:17.522Z,13.00
2018-10-20T05:25:45.892Z,12.80
2018-10-20T05:28:14.368Z,12.80
2018-10-20T05:30:43.163Z,12.80
2018-10-20T05:33:11.499Z,12.80
2018-10-20T05:35:39.927Z,12.70
2018-10-20T05:38:08.269Z,12.60
2018-10-20T05:40:36.706Z,12.50
2018-10-20T05:43:05.390Z,12.70
2018-10-20T05:45:33.739Z,12.80
2018-10-20T05:48:02.095Z,12.70
2018-10-20T05:50:30.486Z,12.70
2018-10-20T05:52:58.937Z,12.70
2018-10-20T05:55:27.318Z,12.60
2018-10-20T05:57:55.729Z,12.50
2018-10-20T06:00:24.028Z,12.50
2018-10-20T06:02:52.467Z,12.60
2018-10-20T06:05:20.849Z,12.60
2018-10-20T06:07:49.311Z,12.60
2018-10-20T06:10:17.995Z,12.60
2018-10-20T06:12:46.362Z,12.60
2018-10-20T06:15:15.775Z,12.60
2018-10-20T06:17:44.221Z,12.60
2018-10-20T06:20:24.381Z,12.60
2018-10-20T06:22:57.196Z,12.60
2018-10-20T06:25:25.571Z,12.70
2018-10-20T06:27:53.935Z,12.70
2018-10-20T06:30:22.307Z,12.60
2018-10-20T06:32:50.806Z,12.60
2018-10-20T06:35:19.120Z,12.60
2018-10-20T06:37:47.540Z,12.60
2018-10-20T06:40:16.063Z,12.70
2018-10-20T06:42:44.389Z,12.70
2018-10-20T06:45:12.790Z,12.70
2018-10-20T06:47:41.298Z,12.80
2018-10-20T06:50:09.878Z,12.70
2018-10-20T06:52:38.433Z,12.80
2018-10-20T06:55:06.919Z,12.90
2018-10-20T06:57:35.247Z,12.80
2018-10-20T07:00:03.974Z,13.00
2018-10-20T07:02:32.325Z,13.10
2018-10-20T07:05:00.749Z,13.10
2018-10-20T07:07:29.101Z,13.00
2018-10-20T07:09:57.544Z,13.00
2018-10-20T07:12:25.914Z,13.00
2018-10-20T07:14:55.358Z,12.90
2018-10-20T07:17:23.775Z,13.10
2018-10-20T07:19:53.050Z,13.20
2018-10-20T07:22:21.604Z,13.30
2018-10-20T07:24:50.400Z,13.40
2018-10-20T07:27:19.425Z,13.30
2018-10-20T07:29:52.754Z,13.50
2018-10-20T07:32:21.646Z,13.70
2018-10-20T07:34:50.421Z,13.70
2018-10-20T07:37:19.159Z,13.80
2018-10-20T07:39:48.040Z,13.90
2018-10-20T07:42:16.876Z,13.80
2018-10-20T07:44:46.523Z,13.80
2018-10-20T07:47:15.450Z,13.60
2018-10-20T07:49:44.350Z,13.70
2018-10-20T07:52:13.275Z,13.80
2018-10-20T07:54:42.163Z,13.90
2018-10-20T07:57:11.155Z,14.00
2018-10-20T07:59:40.112Z,14.10
2018-10-20T08:02:09.254Z,14.40
2018-10-20T08:04:38.195Z,14.50
2018-10-20T08:07:06.992Z,14.70
2018-10-20T08:09:35.850Z,14.80
2018-10-20T08:12:05.040Z,15.10
2018-10-20T08:14:33.910Z,14.90
2018-10-20T08:17:02.785Z,14.90
2018-10-20T08:19:31.438Z,14.90
2018-10-20T08:22:00.189Z,14.80
2018-10-20T08:24:28.592Z,14.90
2018-10-20T08:26:57.031Z,14.80
2018-10-20T08:29:25.363Z,14.80
2018-10-20T08:31:53.726Z,14.70
2018-10-20T08:34:22.159Z,14.60
2018-10-20T08:36:50.577Z,14.60
2018-10-20T08:39:18.915Z,14.80
2018-10-20T08:41:47.392Z,14.80
2018-10-20T08:44:19.054Z,14.80
2018-10-20T08:46:48.551Z,14.80
2018-10-20T08:49:17.372Z,14.70
2018-10-20T08:51:46.073Z,14.80
2018-10-20T08:54:14.970Z,14.80
2018-10-20T08:56:43.744Z,14.80
2018-10-20T08:59:12.731Z,15.00
2018-10-20T09:01:41.681Z,15.30
2018-10-20T09:04:10.121Z,16.10
2018-10-20T09:06:38.534Z,16.70
2018-10-20T09:09:08.071Z,17.30
2018-10-20T09:11:36.359Z,18.20
2018-10-20T09:14:05.022Z,18.40
2018-10-20T09:16:33.424Z,19.10
2018-10-20T09:19:01.854Z,19.10
2018-10-20T09:21:30.226Z,18.80
2018-10-20T09:23:59.027Z,18.80
2018-10-20T09:26:27.562Z,19.40
2018-10-20T09:28:55.937Z,19.50
2018-10-20T09:31:24.364Z,20.10
2018-10-20T09:33:53.664Z,20.10
2018-10-20T09:36:22.593Z,19.90
2018-10-20T09:38:51.494Z,20.50
2018-10-20T09:41:19.974Z,21.10
2018-10-20T09:43:48.523Z,21.10
2018-10-20T09:46:16.915Z,21.00
2018-10-20T09:48:45.345Z,21.00
2018-10-20T09:51:13.755Z,20.50
2018-10-20T09:53:42.409Z,20.70
2018-10-20T09:56:10.934Z,20.80
2018-10-20T09:58:39.224Z,20.70
2018-10-20T10:01:12.978Z,21.00
2018-10-20T10:03:43.386Z,21.00
2018-10-20T10:06:11.856Z,21.20
2018-10-20T10:08:42.329Z,21.40
2018-10-20T10:11:11.283Z,21.30
2018-10-20T10:13:40.423Z,21.20
2018-10-20T10:16:08.775Z,21.10
2018-10-20T10:18:37.175Z,21.10
2018-10-20T10:21:06.632Z,21.40
2018-10-20T10:23:35.410Z,20.80
2018-10-20T10:26:04.352Z,21.30
2018-10-20T10:28:33.284Z,21.40
2018-10-20T10:31:02.200Z,20.90
2018-10-20T10:33:31.105Z,21.10
2018-10-20T10:35:59.843Z,21.10
2018-10-20T10:38:31.414Z,20.90
2018-10-20T10:41:06.642Z,20.70
2018-10-20T10:43:53.100Z,20.40
2018-10-20T10:46:57.296Z,20.50
2018-10-20T10:49:34.455Z,20.60
2018-10-20T10:52:08.587Z,20.20
2018-10-20T10:54:49.483Z,20.70
2018-10-20T10:57:36.476Z,20.80
2018-10-20T11:00:42.326Z,21.00
2018-10-20T11:03:43.985Z,21.30
2018-10-20T11:06:20.858Z,21.40
2018-10-20T11:08:54.743Z,21.70
2018-10-20T11:13:33.086Z,21.60
2018-10-20T11:16:42.842Z,21.10
2018-10-20T11:19:16.834Z,20.10
2018-10-20T11:22:21.303Z,20.30
2018-10-20T11:24:59.077Z,20.30
2018-10-20T11:27:33.795Z,20.30
2018-10-20T11:30:05.793Z,20.60
2018-10-20T11:32:38.232Z,21.30
2018-10-20T11:35:15.078Z,21.70
2018-10-20T11:37:48.837Z,22.20
2018-10-20T11:40:22.450Z,22.50
2018-10-20T11:43:01.399Z,22.20
2018-10-20T11:47:37.623Z,22.00
2018-10-20T11:50:10.300Z,22.50
2018-10-20T11:52:38.756Z,22.60
2018-10-20T11:55:07.190Z,23.10
2018-10-20T11:57:35.665Z,23.20
2018-10-20T12:00:04.080Z,22.50
2018-10-20T12:02:32.406Z,22.10
2018-10-20T12:05:00.794Z,21.60
2018-10-20T12:07:29.227Z,21.60
2018-10-20T12:09:58.055Z,21.60
2018-10-20T12:12:26.430Z,22.00
2018-10-20T12:14:54.849Z,22.20
2018-10-20T12:17:23.448Z,22.30
2018-10-20T12:19:51.940Z,22.10
2018-10-20T12:22:20.267Z,21.60
2018-10-20T12:24:48.627Z,22.10
2018-10-20T12:27:16.982Z,22.30
2018-10-20T12:29:45.834Z,22.50
2018-10-20T12:32:14.205Z,22.10
2018-10-20T12:34:42.587Z,22.30
2018-10-20T12:37:10.932Z,22.50
2018-10-20T12:39:39.312Z,22.70
2018-10-20T12:42:07.700Z,22.90
2018-10-20T12:44:40.590Z,23.40
2018-10-20T12:47:09.004Z,22.90
2018-10-20T12:49:37.396Z,23.00
2018-10-20T12:52:06.139Z,23.30
2018-10-20T12:54:34.767Z,23.50
2018-10-20T12:57:12.288Z,23.40
2018-10-20T12:59:40.668Z,22.70
2018-10-20T13:02:09.422Z,22.30
2018-10-20T13:04:46.511Z,22.60
2018-10-20T13:07:15.263Z,22.80
2018-10-20T13:09:43.939Z,22.50
2018-10-20T13:12:12.646Z,21.70
2018-10-20T13:14:41.069Z,21.90
2018-10-20T13:17:09.402Z,22.20
2018-10-20T13:19:37.851Z,21.70
2018-10-20T13:22:06.248Z,21.60
2018-10-20T13:24:35.382Z,21.70
2018-10-20T13:27:03.868Z,21.70
2018-10-20T13:29:32.717Z,21.30
2018-10-20T13:32:01.250Z,21.40
2018-10-20T13:34:31.018Z,21.50
2018-10-20T13:36:59.547Z,21.50
2018-10-20T13:39:27.960Z,21.80
2018-10-20T13:41:56.567Z,21.90
2018-10-20T13:44:24.874Z,21.60
2018-10-20T13:46:53.237Z,22.10
2018-10-20T13:49:21.666Z,22.40
2018-10-20T13:51:50.127Z,21.60
2018-10-20T13:54:19.115Z,21.80
2018-10-20T13:56:47.467Z,21.60
2018-10-20T13:59:16.298Z,21.40
2018-10-20T14:01:45.082Z,21.00
2018-10-20T14:04:13.997Z,20.60
2018-10-20T14:06:43.340Z,20.70
2018-10-20T14:09:12.131Z,20.80
2018-10-20T14:11:40.994Z,20.50
2018-10-20T14:14:09.980Z,19.90
2018-10-20T14:16:38.899Z,19.20
2018-10-20T14:19:09.499Z,19.60
2018-10-20T14:21:38.562Z,20.10
2018-10-20T14:24:09.689Z,20.50
2018-10-20T14:26:38.778Z,20.70
2018-10-20T14:29:07.516Z,20.30
2018-10-20T14:31:36.762Z,19.90
2018-10-20T14:34:06.827Z,19.90
2018-10-20T14:36:35.614Z,19.70
2018-10-20T14:39:04.810Z,19.70
2018-10-20T14:41:33.441Z,19.80
2018-10-20T14:44:02.206Z,19.90
2018-10-20T14:46:30.723Z,19.70
2018-10-20T14:48:59.199Z,19.70
2018-10-20T14:51:27.629Z,19.70
2018-10-20T14:54:00.585Z,19.40
2018-10-20T14:56:29.249Z,19.30
2018-10-20T14:58:58.194Z,19.20
2018-10-20T15:01:26.947Z,19.10
2018-10-20T15:03:55.766Z,19.00
2018-10-20T15:06:24.495Z,18.90
2018-10-20T15:08:53.415Z,18.70
2018-10-20T15:11:22.378Z,18.60
2018-10-20T15:13:51.053Z,18.40
2018-10-20T15:16:19.819Z,18.30
2018-10-20T15:18:48.585Z,18.20
2018-10-20T15:21:16.973Z,18.00
2018-10-20T15:23:45.474Z,17.90
2018-10-20T15:26:13.923Z,17.80
2018-10-20T15:28:42.347Z,17.90
2018-10-20T15:31:10.699Z,17.80
2018-10-20T15:33:39.108Z,17.70
2018-10-20T15:36:07.495Z,17.60
2018-10-20T15:38:35.891Z,17.40
2018-10-20T15:41:04.320Z,17.40
2018-10-20T15:43:32.728Z,17.30
2018-10-20T15:46:01.652Z,17.20
2018-10-20T15:48:30.165Z,17.00
2018-10-20T15:50:58.440Z,17.00
2018-10-20T15:53:26.880Z,17.00
2018-10-20T15:55:55.322Z,16.90
2018-10-20T15:58:23.730Z,16.90
2018-10-20T16:00:52.081Z,16.80
2018-10-20T16:03:20.614Z,16.80
2018-10-20T16:05:49.021Z,16.70
2018-10-20T16:08:17.434Z,16.60
2018-10-20T16:10:45.857Z,16.50
2018-10-20T16:13:14.246Z,16.50
2018-10-20T16:15:42.841Z,16.50
2018-10-20T16:18:11.755Z,16.30
2018-10-20T16:20:40.043Z,16.00
2018-10-20T16:23:08.409Z,15.90
2018-10-20T16:25:36.786Z,16.00
2018-10-20T16:28:05.317Z,15.90
2018-10-20T16:30:33.545Z,15.90
2018-10-20T16:33:01.946Z,15.90
2018-10-20T16:35:30.312Z,16.00
2018-10-20T16:37:58.638Z,15.90
2018-10-20T16:40:27.006Z,15.80
2018-10-20T16:42:55.416Z,15.70
2018-10-20T16:45:23.801Z,15.70
2018-10-20T16:47:52.215Z,15.70
2018-10-20T16:50:20.599Z,15.70
2018-10-20T16:52:49.016Z,15.60
2018-10-20T16:55:17.438Z,15.60
2018-10-20T16:57:45.857Z,15.40
2018-10-20T17:00:14.387Z,15.10
2018-10-20T17:02:42.874Z,15.10
2018-10-20T17:05:11.305Z,15.30
2018-10-20T17:07:39.766Z,15.30
2018-10-20T17:10:08.518Z,15.40
2018-10-20T17:12:37.026Z,15.40
2018-10-20T17:15:05.667Z,15.30
2018-10-20T17:17:34.071Z,15.30
2018-10-20T17:20:02.505Z,15.30
2018-10-20T17:22:30.905Z,15.20
2018-10-20T17:24:59.273Z,15.20
2018-10-20T17:27:27.845Z,15.10
2018-10-20T17:29:56.179Z,15.10
2018-10-20T17:32:24.549Z,15.10
2018-10-20T17:34:53.057Z,15.10
2018-10-20T17:37:21.298Z,15.00
2018-10-20T17:39:49.681Z,14.70
2018-10-20T17:42:18.047Z,14.70
2018-10-20T17:44:46.406Z,14.70
2018-10-20T17:47:14.817Z,14.80
2018-10-20T17:49:43.131Z,14.70
2018-10-20T17:52:11.533Z,14.60
2018-10-20T17:54:39.952Z,14.60
2018-10-20T17:57:08.339Z,14.60
2018-10-20T17:59:36.942Z,14.50
2018-10-20T18:02:05.632Z,14.50
2018-10-20T18:04:34.052Z,14.50
2018-10-20T18:07:02.406Z,14.50
2018-10-20T18:09:30.915Z,14.40
2018-10-20T18:11:59.330Z,14.40
2018-10-20T18:14:27.698Z,14.30
2018-10-20T18:16:56.246Z,14.20
2018-10-20T18:19:24.602Z,14.30
2018-10-20T18:21:53.002Z,14.30
2018-10-20T18:24:21.390Z,14.20
2018-10-20T18:26:49.790Z,14.20
2018-10-20T18:29:19.024Z,14.10
2018-10-20T18:31:47.385Z,14.10
2018-10-20T18:34:15.767Z,14.00
2018-10-20T18:36:44.170Z,13.90
2018-10-20T18:39:12.671Z,13.80
2018-10-20T18:41:40.945Z,13.80
2018-10-20T18:44:09.325Z,13.70
2018-10-20T18:46:37.853Z,13.70
2018-10-20T18:49:05.142Z,13.70
2018-10-20T18:51:33.543Z,13.70
2018-10-20T18:54:01.933Z,13.50
2018-10-20T18:56:30.549Z,13.60
2018-10-20T18:58:58.967Z,13.60
2018-10-20T19:01:27.384Z,13.60
2018-10-20T19:03:55.763Z,13.60
2018-10-20T19:06:24.392Z,13.50
2018-10-20T19:08:52.689Z,13.50
2018-10-20T19:11:21.165Z,13.40
2018-10-20T19:13:49.562Z,13.40
2018-10-20T19:16:17.975Z,13.30
2018-10-20T19:18:46.323Z,13.30
2018-10-20T19:21:14.867Z,13.20
2018-10-20T19:23:43.221Z,13.20
2018-10-20T19:26:11.629Z,13.20
2018-10-20T19:28:40.028Z,13.20
2018-10-20T19:31:08.529Z,13.20
2018-10-20T19:33:37.330Z,13.10
2018-10-20T19:36:06.158Z,13.10
2018-10-20T19:38:35.024Z,13.10
2018-10-20T19:41:03.755Z,13.00
2018-10-20T19:43:32.640Z,13.00
2018-10-20T19:46:01.455Z,12.90
2018-10-20T19:48:42.177Z,12.80
2018-10-20T19:51:17.729Z,12.70
2018-10-20T19:53:46.010Z,12.80
2018-10-20T19:56:14.694Z,12.70
2018-10-20T19:58:42.928Z,12.60
2018-10-20T20:01:11.739Z,12.70
2018-10-20T20:03:40.608Z,12.60
2018-10-20T20:06:11.868Z,12.60
2018-10-20T20:08:40.795Z,12.40
2018-10-20T20:11:09.170Z,12.30
2018-10-20T20:13:37.899Z,12.30
2018-10-20T20:16:06.869Z,12.30
2018-10-20T20:19:15.218Z,12.60
2018-10-20T20:21:45.355Z,12.40
2018-10-20T20:24:17.523Z,12.40
2018-10-20T20:26:46.379Z,12.40
2018-10-20T20:29:16.589Z,12.40
2018-10-20T20:31:45.462Z,12.40
2018-10-20T20:34:13.883Z,12.40
2018-10-20T20:36:42.336Z,12.30
2018-10-20T20:39:11.554Z,12.30
2018-10-20T20:41:39.906Z,12.30
2018-10-20T20:44:09.047Z,12.20
2018-10-20T20:46:37.480Z,12.10
2018-10-20T20:49:05.956Z,12.10
2018-10-20T20:51:34.372Z,12.30
2018-10-20T20:54:02.756Z,12.20
2018-10-20T20:56:31.097Z,12.00
2018-10-20T20:58:59.521Z,12.10
2018-10-20T21:01:27.958Z,12.00
2018-10-20T21:03:56.349Z,11.90
2018-10-20T21:06:24.731Z,11.90
2018-10-20T21:08:53.427Z,11.90
2018-10-20T21:11:21.770Z,11.80
2018-10-20T21:13:50.178Z,11.90
2018-10-20T21:16:19.257Z,11.90
2018-10-20T21:18:47.604Z,11.90
2018-10-20T21:21:15.990Z,11.80
2018-10-20T21:23:44.368Z,11.80
2018-10-20T21:26:12.783Z,11.80
2018-10-20T21:28:46.439Z,11.60
2018-10-20T21:31:14.802Z,11.70
2018-10-20T21:33:43.199Z,11.60
2018-10-20T21:36:11.582Z,11.70
2018-10-20T21:38:39.976Z,11.70
2018-10-20T21:41:08.344Z,11.70
2018-10-20T21:43:36.763Z,11.60
2018-10-20T21:46:05.686Z,11.60
2018-10-20T21:48:34.133Z,11.50
2018-10-20T21:51:02.572Z,11.50
2018-10-20T21:53:31.025Z,11.60
2018-10-20T21:55:59.358Z,11.60
2018-10-20T21:58:27.745Z,11.50
2018-10-20T22:00:56.186Z,11.50
2018-10-20T22:03:24.613Z,11.40
2018-10-20T22:05:52.988Z,11.40
2018-10-20T22:08:22.003Z,11.40
2018-10-20T22:10:50.459Z,11.40
2018-10-20T22:13:18.830Z,11.40
2018-10-20T22:15:47.226Z,11.30
2018-10-20T22:18:15.611Z,11.30
2018-10-20T22:20:44.047Z,11.30
2018-10-20T22:23:12.406Z,11.20
2018-10-20T22:25:40.791Z,11.20
2018-10-20T22:28:09.165Z,11.20
2018-10-20T22:30:37.574Z,11.20
2018-10-20T22:33:06.215Z,11.10
2018-10-20T22:35:34.589Z,11.20
2018-10-20T22:38:03.011Z,11.10
2018-10-20T22:40:31.385Z,11.10
2018-10-20T22:43:00.641Z,11.00
2018-10-20T22:45:29.190Z,11.00
2018-10-20T22:47:57.590Z,11.00
2018-10-20T22:50:26.005Z,10.90
2018-10-20T22:52:54.400Z,10.90
2018-10-20T22:55:22.784Z,10.80
2018-10-20T22:57:51.164Z,10.80
2018-10-20T23:00:19.540Z,10.80
2018-10-20T23:02:47.937Z,10.70
2018-10-20T23:05:16.326Z,10.60
2018-10-20T23:07:44.722Z,10.70
2018-10-20T23:10:13.082Z,10.70
2018-10-20T23:12:41.496Z,10.70
2018-10-20T23:15:09.972Z,10.70
2018-10-20T23:17:38.267Z,10.80
2018-10-20T23:20:07.478Z,10.70
2018-10-20T23:22:35.838Z,10.50
2018-10-20T23:25:05.431Z,10.60
2018-10-20T23:27:33.851Z,10.70
2018-10-20T23:30:02.208Z,10.70
2018-10-20T23:32:30.779Z,10.70
2018-10-20T23:34:59.168Z,10.60
2018-10-20T23:37:27.530Z,10.50
2018-10-20T23:39:55.938Z,10.50
2018-10-20T23:42:24.355Z,10.50
2018-10-20T23:44:52.716Z,10.40
2018-10-20T23:47:21.116Z,10.40
2018-10-20T23:49:49.518Z,10.40
2018-10-20T23:52:17.875Z,10.30
2018-10-20T23:54:46.539Z,10.20
2018-10-20T23:57:14.965Z,10.20
2018-10-20T23:59:43.348Z,10.30
